St Petersburg Clearwater International Airport
KPIE : now visible

Airfield :











YOU CAN JOIN US ON...

 
LOGIN :

Register | Disclaimer

   EN    FR    IT 

 









Legend :    VFR   Marginal VFR   IFR   Intensive IFR   Very Intensive IFR
Visi :
Ceiling :
>= 8 km
>= 3000ft
5 to 8 km
1000 to 3000 ft
1500m to 5 km
500 to 1000 ft
800 to 1500m
200 to 500 ft
< 800m
< 200 ft
Symbols :   Thunderstorms  Fog  Heavy snow  Heavy precipitations  Wind > 20 kt






- Airport Elevation : 11 ft
- IATA code : PIE


KPIE - St Petersburg Clearwater International

CURRENT METAR :
  • 100553Z AUTO 23006KT 8SM FEW016 SCT023 BKN030 24/22 A2983 RMK AO2 SLP100 T02440222 10261 20244 56006

EXPIRED METARs :
  • 100453Z AUTO 25005KT 8SM CLR 24/22 A2983 RMK AO2 SLP102 T02440222 403060239
  • 100353Z 23004KT 8SM CLR 24/22 A2983 RMK AO2 SLP101 T02440222

TAF KPIE
Valid from the 10 at 06:00 until the 11 at 06:00 UTC


100528Z 1006/1106 25006KT P6SM SCT010 BKN250
FM100800 26007KT P6SM SCT010 BKN020 OVC080
FM101500 31010G15KT P6SM VCSH BKN015 OVC060
FM101800 34009KT P6SM VCSH BKN030 OVC050
FM102100 35013KT P6SM VCSH SCT020 BKN050
FM110000 36009KT P6SM SCT020 BKN050



MET'MAP, your aeronautical weather chart ! - Copyright ORBIFLY December 2007 - Disclaimer

ORBIFLY MET'MAP TEAM :

Programming & Development : Alexandra Zaïnal
Concept & original design : Baudouin d'Aumeries
Assistance for programming : Marc-Olivier Méhu
Technical & hardware support : Manuel Goepfert

Contact : metmap@orbifly.com




SOURCES & CREDITS :

   NOAA       Earth
Advisory